KSYR/SYR METAR and TAF weather

Enter ICAO airport designator
Station Type Date Time Source
KSYR METAR 2024/04/18 06:54 UTC NOAA

KSYR 180654Z 07011KT 10SM BKN022 OVC080 11/09 A2986 RMK AO2 RAB30E49 SLP108 P0000 T01060094


Station Type Date Time Source
KSYR Decoded METAR 2024/04/18 06:54 UTC NOAA

SYRACUSE HANCOCK INTERNATIONAL AIRPORT , NY, United States (KSYR) 43-07N 76-06W 127M
Apr 18, 2024 - 02:54 AM EDT / 2024.04.18 0654 UTC
Wind: from the ENE (070 degrees) at 13 MPH (11 KT):0
Visibility: 10 mile(s):0
Sky conditions: overcast
Precipitation last hour: A trace
Temperature: 51.1 F (10.6 C)
Dew Point: 48.9 F (9.4 C)
Relative Humidity: 92%
Pressure (altimeter): 29.86 in. Hg (1011 hPa)
ob: KSYR 180654Z 07011KT 10SM BKN022 OVC080 11/09 A2986 RMK AO2 RAB30E49 SLP108 P0000 T01060094
cycle: 7

Station Type Date Time Source
KSYR TAF 2024/04/18 06:58 UTC NOAA